WETTERDATEN

GESTERN
Time Temp. Taup. r.Fe. Windrich Windstärke Windböe Druck 1h Prec. 24h Prec.
06:04 9.2 8.9 98 51 1.7 2.2 1022.9 0.0000 0.0000
06:14 9.1 8.8 98 47 1.4 2.2 1022.8 0.0000 0.0000
06:24 9 8.7 98 50 1.7 2.5 1023 0.0000 0.0000
06:34 9 8.7 98 50 2.2 2.5 1022.8 0.0000 0.0000
06:45 9 8.7 98 49 1.7 2.5 1023 0.0000 0.0000
06:54 9 8.7 98 47 1.7 2.5 1022.9 0.0000 0.0000
07:04 9 8.7 98 48 2.5 3.1 1023.1 0.0000 0.0000
07:15 8.9 8.6 98 50 2.5 3.1 1022.8 0.0000 0.0000
07:25 8.9 8.6 98 50 2.5 3.1 1022.7 0.0000 0.0000
07:34 8.9 8.6 98 44 2.5 3.1 1023.2 0.0000 0.0000
07:45 8.9 8.6 98 45 2.5 3.1 1023.3 0.0000 0.0000
07:55 9 8.9 99 52 2.5 2.8 1023.5 0.0000 0.0000
08:05 9.1 9 99 45 2.5 2.8 1023.3 0.0000 0.0000
08:14 9.2 9.1 99 41 2.5 2.8 1023.4 0.0000 0.0000
08:25 9.4 9.3 99 36 2.2 2.8 1023.4 0.0000 0.0000
08:35 9.6 9.5 99 36 2.2 2.8 1023.5 0.0000 0.0000
08:45 9.8 9.7 99 36 2.2 2.8 1023.6 0.0000 0.0000
08:55 9.9 9.8 99 37 2.2 2.8 1023.4 0.0000 0.0000
09:05 10 9.9 99 39 2.2 2.8 1023.2 0.0000 0.0000
09:16 10.3 10.1 99 41 2.5 2.8 1023.3 0.0000 0.0000
09:25 10.5 10.3 99 40 2.2 2.8 1023.2 0.0000 0.0000
09:36 10.9 10.9 100 37 2.2 2.8 1023.3 0.0000 0.0000
09:46 11.4 11.4 100 38 2.2 2.8 1023.2 0.0000 0.0000
09:56 11.9 11.9 100 28 1.1 1.7 1023.4 0.0000 0.0000
10:06 12.3 12.3 100 37 1.4 2.2 1023.4 0.0000 0.0000
10:16 12.6 12.6 100 47 1.4 1.7 1023.2 0.0000 0.0000
10:26 13.2 13.2 100 37 1.7 2.5 1023.4 0.0000 0.0000
10:36 13.5 13.5 100 40 1.4 2.5 1023.2 0.0000 0.0000
10:47 13.8 13.8 100 52 1.4 2.5 1023.4 0.0000 0.0000
10:56 14.3 14.3 100 51 1.4 2.8 1023.3 0.0000 0.0000
11:06 14.8 14.8 100 46 1.7 2.2 1023.2 0.0000 0.0000
11:16 15.3 15.3 100 56 1.7 2.5 1022.9 0.0000 0.0000
11:27 15.8 15.6 99 56 1.4 2.2 1022.9 0.0000 0.0000
11:36 16.3 16 98 43 1.1 1.7 1023.1 0.0000 0.0000
11:46 16.9 16.3 96 45 1.1 1.7 1023 0.0000 0.0000
11:57 17.6 16.6 94 55 1.4 2.5 1022.9 0.0000 0.0000
12:07 18.5 16.8 90 35 1.1 1.7 1022.9 0.0000 0.0000
12:17 19.3 16.9 86 45 1.1 2.2 1022.7 0.0000 0.0000
12:27 19.9 16.9 83 53 1.4 2.5 1022.6 0.0000 0.0000
12:37 20.2 16.6 80 54 1.4 2.2 1022.6 0.0000 0.0000
12:47 20.6 17 80 45 1.1 2.2 1022.4 0.0000 0.0000
12:57 21.1 16.9 77 53 1.1 1.7 1022.4 0.0000 0.0000
13:08 21.4 17 76 54 1.4 2.2 1022.1 0.0000 0.0000
13:18 21.4 16.6 74 58 1.4 2.2 1022.1 0.0000 0.0000
13:28 21.5 16.7 74 45 1.4 2.5 1021.9 0.0000 0.0000
13:38 21.6 16.8 74 61 1.4 2.5 1021.8 0.0000 0.0000
13:49 21.6 16.6 73 42 1.7 2.5 1021.7 0.0000 0.0000
13:59 21.6 16.8 74 47 1.7 2.8 1021.7 0.0000 0.0000
14:09 21.8 16.7 73 60 1.4 2.2 1021.4 0.0000 0.0000
14:19 22.5 17.4 73 53 1.1 1.7 1021.3 0.0000 0.0000
14:29 22.9 17.6 72 63 1.4 2.2 1021.3 0.0000 0.0000
14:39 23 17.2 70 63 1.4 2.5 1021 0.0000 0.0000
14:49 23.1 17.1 69 47 1.4 2.5 1020.9 0.0000 0.0000
14:59 23.3 17.3 69 47 1.7 2.8 1020.8 0.0000 0.0000
15:09 23.2 17.2 69 60 1.4 2.2 1020.7 0.0000 0.0000
15:19 23.5 17.5 69 59 1.4 2.5 1020.6 0.0000 0.0000
15:29 23.7 17.2 67 62 1.4 2.2 1020.5 0.0000 0.0000
15:40 23.8 16.6 64 48 1.4 2.5 1020.5 0.0000 0.0000
15:50 24.1 16.9 64 57 1.4 1.7 1020.4 0.0000 0.0000
16:00 24.1 17.1 65 60 1.4 2.2 1020.5 0.0000 0.0000
16:10 24.2 17 64 59 1.4 2.2 1020.4 0.0000 0.0000
16:20 24.4 16.9 63 49 1.1 1.7 1020 0.0000 0.0000
16:30 24.4 17.6 66 52 1.1 2.2 1020.1 0.0000 0.0000
16:40 23.9 18.3 71 65 1.4 1.7 1020 0.0000 0.0000
16:51 23.3 18.4 74 60 1.4 2.2 1019.9 0.0000 0.0000
17:00 23.2 18.7 76 59 1.4 1.7 1020.1 0.0000 0.0000
17:10 23 19.2 79 68 1.4 1.7 1020 0.0000 0.0000
17:20 22.9 19.5 81 60 1.4 1.7 1019.9 0.0000 0.0000
17:31 22.8 19.2 80 51 1.1 1.7 1020 0.0000 0.0000
17:41 22.6 19.2 81 64 1.4 1.7 1020 0.0000 0.0000
17:50 22.3 19.1 82 65 1.4 1.7 1020.1 0.0000 0.0000
18:01 21.9 18.9 83 60 1.4 1.7 1020.4 0.0000 0.0000
18:11 21.8 19.2 85 61 1.4 2.2 1020.4 0.0000 0.0000
18:21 21.9 18.9 83 61 1.4 1.7 1020.4 0.0000 0.0000
18:31 22 19 83 58 1.4 1.7 1020.5 0.0000 0.0000
18:42 21.9 18.9 83 58 1.4 1.7 1020.6 0.0000 0.0000
18:52 21.8 18.2 80 40 0.8 1.7 1020.6 0.0000 0.0000
19:01 21.7 17.7 78 45 0.8 1.7 1020.6 0.0000 0.0000
19:12 21.2 17.6 80 66 1.4 2.2 1020.6 0.0000 0.0000
19:22 20.5 17.1 81 66 1.4 1.7 1020.7 0.0000 0.0000
19:33 20 17 83 71 1.4 2.2 1020.9 0.0000 0.0000
19:42 19.7 16.9 84 58 1.4 1.7 1021 0.0000 0.0000
19:53 19.5 16.9 85 63 1.4 1.7 1021 0.0000 0.0000
20:03 19.3 17.1 87 55 1.1 1.7 1021.3 0.0000 0.0000
20:13 19.1 16.9 87 66 1.4 1.7 1021.3 0.0000 0.0000
20:23 18.9 16.9 88 60 1.4 2.2 1021.7 0.0000 0.0000
20:34 18.6 16.9 90 63 1.4 1.7 1022 0.0000 0.0000
20:44 18.5 17 91 57 1.4 1.7 1022.1 0.0000 0.0000
20:53 18.4 16.9 91 59 1.4 2.2 1022 0.0000 0.0000
21:03 18.3 17 92 59 1.4 2.2 1022.1 0.0000 0.0000
21:14 18.2 16.9 92 55 1.4 1.7 1022.4 0.0000 0.0000
21:24 18.1 16.8 92 66 1.4 2.2 1022.4 0.0000 0.0000
21:33 18 16.7 92 58 1.1 1.7 1022.5 0.0000 0.0000
21:44 18 16.9 93 61 1.4 2.2 1022.5 0.0000 0.0000
21:54 17.9 16.8 93 56 1.4 1.7 1022.7 0.0000 0.0000
22:04 17.9 16.8 93 53 1.4 2.2 1022.9 0.0000 0.0000
22:14 17.8 16.7 93 62 1.7 2.2 1022.9 0.0000 0.0000
22:25 17.7 16.6 93 54 1.4 1.7 1022.9 0.0000 0.0000
22:35 17.7 16.7 94 60 1.4 1.7 1023.1 0.0000 0.0000
22:44 17.6 16.6 94 51 1.7 2.5 1023.1 0.0000 0.0000
22:55 17.6 16.6 94 65 1.7 2.2 1023.1 0.0000 0.0000
23:05 17.5 16.7 95 56 1.4 1.7 1023.4 0.0000 0.0000
23:15 17.5 16.7 95 59 1.4 2.2 1023.2 0.0000 0.0000
23:24 17.4 16.6 95 59 1.4 1.7 1023.2 0.0000 0.0000
23:35 17.4 16.6 95 54 1.4 2.2 1023.3 0.0000 0.0000
23:45 17.4 16.6 95 50 1.4 1.7 1023.4 0.0000 0.0000

TAGESSTATISTIK

2021-09-25
TEMPERATUR
MITTEL
17.5
MAXIMUM
24.4
16:20
MINIMUM
8.9
07:15
LUFTDRUCK
MITTEL
1022.1
MAXIMUM
1023.6
08:45
MINIMUM
1019.9
16:51
TAUPUNKT
MITTEL
15.2
MAXIMUM
19.5
17:20
MINIMUM
8.6
07:15
FEUCHTIGKEIT
MITTEL
87
MAXIMUM
100
09:36
MINIMUM
63
16:20
WINDSTÄRKE
MITTEL
1.5
MAXIMUM
2.5
07:04
WINDBÖE
MITTEL
2.2
MAXIMUM
3.1
07:04
WINDRICHTUNG
VORHERRSCHENDE
NO
98.1%
N
0.0
NO
98.1
O
1.9
SO
0.0
S
0.0
SW
0.0
W
0.0
NW
0.0
NIEDERSCHLAG
REGEN STUNDE
0.0
REGEN TAG
0.0
TEMPERATUR (°C)
MINIMUM
8.9
MAXIMUM
24.4
MITTEL
17.5
LUFTDRUCK (hpa)
MINIMUM
1019.9
MAXIMUM
1023.6
MITTEL
1022.1
MESSGERÄT